THL weather

Tachileik Airport
Tachileik, Shan State, Burma

Public forecast

Using degrees Celsius for public forecast. Weather courtesy of forecast.io.

Closest aviation weather report (METAR) to Tachileik Airport

Closest report is Chiang Rai International Airport, 32.0 nm (59.4 km) S. Retrieved 2019/11/14 15:00 UTC (48 minutes ago):

VTCT 141500Z 00000KT 9999 FEW030 23/22 Q1017 NOSIG

Closest aviation forecast (TAF) to Tachileik Airport

Closest forecast is Chiang Rai International Airport, 32.0 nm (59.4 km) S. Retrieved 2019/11/14 12:00 UTC (4 hours ago):

TAF VTCT 141100Z 1412/1518 30005KT 9999 SCT025